Time;durP1;ratioP1;P1;durP2;ratioP2;P2;SDS_P1;SDS_P2;PMS_P1;PMS_P2;Temp;Humidity;BMP_temperature;BMP_pressure;BME280_temperature;BME280_humidity;BME280_pressure;Samples;Min_cycle;Max_cycle;Signal;HPM_P1;HPM_P2
2021/06/16 00:01:51;;;;;;;;;;;12.20;77.60;;;;;;5072328;28;19917;-66
2021/06/16 00:04:16;;;;;;;;;;;12.20;77.80;;;;;;5069809;28;19925;-66
2021/06/16 00:06:42;;;;;;;;;;;12.20;78.00;;;;;;5072058;28;20380;-66
2021/06/16 00:09:08;;;;;;;;;;;12.10;78.50;;;;;;5070670;28;19917;-66
2021/06/16 00:11:34;;;;;;;;;;;12.00;78.10;;;;;;5071743;28;19917;-67
2021/06/16 00:13:59;;;;;;;;;;;12.00;78.40;;;;;;5071130;28;20437;-66
2021/06/16 00:16:25;;;;;;;;;;;12.00;78.60;;;;;;5072035;28;19916;-67
2021/06/16 00:18:51;;;;;;;;;;;11.90;78.70;;;;;;5070177;28;19929;-66
2021/06/16 00:21:17;;;;;;;;;;;11.90;78.90;;;;;;5071951;28;19942;-67
2021/06/16 00:23:43;;;;;;;;;;;11.90;79.10;;;;;;5071805;28;20348;-66
2021/06/16 00:26:08;;;;;;;;;;;11.90;79.20;;;;;;5069994;28;19920;-67
2021/06/16 00:28:34;;;;;;;;;;;11.90;79.40;;;;;;5071531;28;19963;-66
2021/06/16 00:31:00;;;;;;;;;;;11.90;79.50;;;;;;5070239;28;19955;-67
2021/06/16 00:33:26;;;;;;;;;;;11.80;79.70;;;;;;5070910;28;19952;-66
2021/06/16 00:35:51;;;;;;;;;;;11.80;79.90;;;;;;5071929;28;19971;-66
2021/06/16 00:38:17;;;;;;;;;;;11.90;80.00;;;;;;5071175;28;19966;-67
2021/06/16 00:40:42;;;;;;;;;;;11.80;79.90;;;;;;5072194;28;20008;-68
2021/06/16 00:43:08;;;;;;;;;;;11.80;79.80;;;;;;5071006;28;20375;-67
2021/06/16 00:45:34;;;;;;;;;;;11.70;79.80;;;;;;5071421;28;19916;-67
2021/06/16 00:48:00;;;;;;;;;;;11.70;80.00;;;;;;5070615;28;19921;-66
2021/06/16 00:50:36;;;;;;;;;;;11.70;80.10;;;;;;5071297;28;20427;-68
2021/06/16 00:53:01;;;;;;;;;;;11.60;80.10;;;;;;5069769;28;20379;-67
2021/06/16 00:55:27;;;;;;;;;;;11.60;80.30;;;;;;5070821;28;19921;-68
2021/06/16 00:57:53;;;;;;;;;;;11.50;80.40;;;;;;5070480;28;20411;-67
2021/06/16 01:00:20;;;;;;;;;;;11.50;80.60;;;;;;5070337;28;20315;-66
2021/06/16 01:03:04;;;;;;;;;;;11.40;80.70;;;;;;5070957;28;19920;-66
2021/06/16 01:05:35;;;;;;;;;;;11.40;81.00;;;;;;5071578;28;20391;-65
2021/06/16 01:08:01;;;;;;;;;;;11.40;81.10;;;;;;5069108;28;20050;-67
2021/06/16 01:10:29;;;;;;;;;;;11.30;81.10;;;;;;5071509;28;19912;-66
2021/06/16 01:12:55;;;;;;;;;;;11.30;81.30;;;;;;5070408;28;20299;-66
2021/06/16 01:15:22;;;;;;;;;;;11.30;81.40;;;;;;5071248;28;19920;-66
2021/06/16 01:17:49;;;;;;;;;;;11.30;81.50;;;;;;5069939;28;20019;-66
2021/06/16 01:20:24;;;;;;;;;;;11.20;81.50;;;;;;5070794;28;20007;-67
2021/06/16 01:22:59;;;;;;;;;;;11.20;81.70;;;;;;5070692;28;19916;-67
2021/06/16 01:25:43;;;;;;;;;;;11.20;81.80;;;;;;5070668;28;19960;-67
2021/06/16 01:28:09;;;;;;;;;;;11.20;81.90;;;;;;5070840;28;20316;-67
2021/06/16 01:30:35;;;;;;;;;;;11.10;81.80;;;;;;5071261;28;19917;-67
2021/06/16 01:33:02;;;;;;;;;;;11.10;82.10;;;;;;5070456;28;19921;-67
2021/06/16 01:35:29;;;;;;;;;;;11.00;82.10;;;;;;5069507;28;20019;-66
2021/06/16 01:37:56;;;;;;;;;;;11.00;82.20;;;;;;5071141;28;19917;-67
2021/06/16 01:40:23;;;;;;;;;;;11.00;82.50;;;;;;5072997;28;19944;-67
2021/06/16 01:42:50;;;;;;;;;;;10.90;82.40;;;;;;5073961;28;19923;-66
2021/06/16 01:45:16;;;;;;;;;;;10.90;82.60;;;;;;5074658;28;20003;-67
2021/06/16 01:47:42;;;;;;;;;;;10.80;82.60;;;;;;5074418;28;19920;-66
2021/06/16 01:50:09;;;;;;;;;;;10.80;82.70;;;;;;5074098;28;20035;-66
2021/06/16 01:52:34;;;;;;;;;;;10.80;82.80;;;;;;5074855;28;20391;-66
2021/06/16 01:55:01;;;;;;;;;;;10.70;82.90;;;;;;5073784;28;19921;-66
2021/06/16 01:57:27;;;;;;;;;;;10.70;83.00;;;;;;5074554;28;19942;-67
2021/06/16 01:59:53;;;;;;;;;;;10.70;83.20;;;;;;5056625;28;19918;-66
2021/06/16 02:02:19;;;;;;;;;;;10.70;83.20;;;;;;5072925;28;19920;-67
2021/06/16 02:04:44;;;;;;;;;;;10.70;83.20;;;;;;5073598;28;19917;-66
2021/06/16 02:07:14;;;;;;;;;;;10.60;83.20;;;;;;5074089;28;19920;-66
2021/06/16 02:09:42;;;;;;;;;;;10.60;83.30;;;;;;5074343;28;19923;-67
2021/06/16 02:12:09;;;;;;;;;;;10.60;83.40;;;;;;5074348;28;19913;-66
2021/06/16 02:14:35;;;;;;;;;;;10.60;83.50;;;;;;5072961;28;20003;-66
2021/06/16 02:17:08;;;;;;;;;;;10.60;83.60;;;;;;5073000;28;20449;-67
2021/06/16 02:19:34;;;;;;;;;;;10.60;83.70;;;;;;5072460;28;19917;-67
2021/06/16 02:22:00;;;;;;;;;;;10.50;83.70;;;;;;5074313;28;19923;-66
2021/06/16 02:24:26;;;;;;;;;;;10.50;83.80;;;;;;5073424;28;19924;-66
2021/06/16 02:26:52;;;;;;;;;;;10.50;83.90;;;;;;5074033;28;19916;-66
2021/06/16 02:29:18;;;;;;;;;;;10.50;84.00;;;;;;5074088;28;19939;-66
2021/06/16 02:31:44;;;;;;;;;;;10.40;84.10;;;;;;5073851;28;20387;-66
2021/06/16 02:34:10;;;;;;;;;;;10.40;84.20;;;;;;5055175;28;19924;-66
2021/06/16 02:36:41;;;;;;;;;;;10.40;84.20;;;;;;5072563;28;19916;-66
2021/06/16 02:39:09;;;;;;;;;;;10.40;84.30;;;;;;5073614;28;20525;-65
2021/06/16 02:41:35;;;;;;;;;;;10.40;84.30;;;;;;5073805;28;19920;-66
2021/06/16 02:44:01;;;;;;;;;;;10.30;84.40;;;;;;5072585;28;20269;-66
2021/06/16 02:46:28;;;;;;;;;;;10.30;84.50;;;;;;5073703;28;20391;-66
2021/06/16 02:48:54;;;;;;;;;;;10.30;84.50;;;;;;5072933;28;19926;-66
2021/06/16 02:51:20;;;;;;;;;;;10.30;84.60;;;;;;5072842;28;19922;-66
2021/06/16 02:53:46;;;;;;;;;;;10.20;84.60;;;;;;5072729;28;20339;-66
2021/06/16 02:56:13;;;;;;;;;;;10.20;84.50;;;;;;5073225;28;19921;-65
2021/06/16 02:58:40;;;;;;;;;;;10.20;84.50;;;;;;5072320;28;19917;-65
2021/06/16 03:01:07;;;;;;;;;;;10.20;84.60;;;;;;5073627;28;19952;-66
2021/06/16 03:03:34;;;;;;;;;;;10.20;84.70;;;;;;5071252;28;19939;-66
2021/06/16 03:06:00;;;;;;;;;;;10.20;84.80;;;;;;5072159;28;19917;-67
2021/06/16 03:08:26;;;;;;;;;;;10.20;84.90;;;;;;5073873;28;19924;-67
2021/06/16 03:10:53;;;;;;;;;;;10.20;85.00;;;;;;5073547;28;19931;-66
2021/06/16 03:13:18;;;;;;;;;;;10.20;85.00;;;;;;5071357;28;20392;-66
2021/06/16 03:15:46;;;;;;;;;;;10.20;85.00;;;;;;5072735;28;19970;-65
2021/06/16 03:18:12;;;;;;;;;;;10.20;85.10;;;;;;5071861;28;20365;-65
2021/06/16 03:20:39;;;;;;;;;;;10.20;85.20;;;;;;5071432;28;19921;-66
2021/06/16 03:23:05;;;;;;;;;;;10.20;85.30;;;;;;5072182;28;19928;-65
2021/06/16 03:25:31;;;;;;;;;;;10.20;85.30;;;;;;5071781;28;20288;-66
2021/06/16 03:27:56;;;;;;;;;;;10.20;85.30;;;;;;5072431;28;19944;-67
2021/06/16 03:30:23;;;;;;;;;;;10.20;85.50;;;;;;5072971;28;19999;-65
2021/06/16 03:32:49;;;;;;;;;;;10.20;85.50;;;;;;5072400;28;19955;-65
2021/06/16 03:35:15;;;;;;;;;;;10.10;85.40;;;;;;5070818;28;19959;-65
2021/06/16 03:37:41;;;;;;;;;;;10.10;85.50;;;;;;5071447;28;19962;-65
2021/06/16 03:40:07;;;;;;;;;;;10.10;85.70;;;;;;5071173;28;20395;-66
2021/06/16 03:42:33;;;;;;;;;;;10.20;85.90;;;;;;5071379;28;19916;-66
2021/06/16 03:45:02;;;;;;;;;;;10.20;86.00;;;;;;5072019;28;19916;-66
2021/06/16 03:47:28;;;;;;;;;;;10.20;85.90;;;;;;5071986;28;19920;-66
2021/06/16 03:49:56;;;;;;;;;;;10.20;85.90;;;;;;5072558;28;19951;-66
2021/06/16 03:52:22;;;;;;;;;;;10.20;86.00;;;;;;5071479;28;19917;-66
2021/06/16 03:54:47;;;;;;;;;;;10.30;86.20;;;;;;5071114;28;19920;-66
2021/06/16 03:57:14;;;;;;;;;;;10.30;86.20;;;;;;5071112;28;20062;-66
2021/06/16 03:59:40;;;;;;;;;;;10.40;86.30;;;;;;5070778;28;20006;-66
2021/06/16 04:02:06;;;;;;;;;;;10.40;86.40;;;;;;5071530;28;19920;-66
2021/06/16 04:04:32;;;;;;;;;;;10.40;86.50;;;;;;5071421;28;20004;-66
2021/06/16 04:06:59;;;;;;;;;;;10.50;86.40;;;;;;5071779;28;19919;-67
2021/06/16 04:09:25;;;;;;;;;;;10.50;86.40;;;;;;5072208;28;19918;-67
2021/06/16 04:11:51;;;;;;;;;;;10.60;86.40;;;;;;5071690;28;19952;-66
2021/06/16 04:14:17;;;;;;;;;;;10.60;86.40;;;;;;5071469;28;20395;-67
2021/06/16 04:16:42;;;;;;;;;;;10.70;86.50;;;;;;5071939;28;19999;-66
2021/06/16 04:19:08;;;;;;;;;;;10.70;86.50;;;;;;5070364;28;19966;-69
2021/06/16 04:21:34;;;;;;;;;;;10.80;86.70;;;;;;5071931;28;20272;-67
2021/06/16 04:23:59;;;;;;;;;;;10.80;86.60;;;;;;5069878;28;19950;-67
2021/06/16 04:26:25;;;;;;;;;;;10.90;86.60;;;;;;5071431;28;20303;-66
2021/06/16 04:28:50;;;;;;;;;;;11.00;86.80;;;;;;5071975;28;19955;-66
2021/06/16 04:31:16;;;;;;;;;;;11.10;87.10;;;;;;5071521;28;19917;-68
2021/06/16 04:33:42;;;;;;;;;;;11.20;87.10;;;;;;5071389;28;19916;-67
2021/06/16 04:36:09;;;;;;;;;;;11.30;87.00;;;;;;5071987;28;19916;-66
2021/06/16 04:38:35;;;;;;;;;;;11.40;87.50;;;;;;5071188;28;20006;-65
2021/06/16 04:41:02;;;;;;;;;;;11.40;87.10;;;;;;5071690;28;19920;-66
2021/06/16 04:43:27;;;;;;;;;;;11.50;87.10;;;;;;5070883;28;19916;-67
2021/06/16 04:45:53;;;;;;;;;;;11.60;87.10;;;;;;5068952;28;19917;-66
2021/06/16 04:48:18;;;;;;;;;;;11.80;87.10;;;;;;5111298;22;19928;-70
2021/06/16 04:50:44;;;;;;;;;;;11.80;87.10;;;;;;5100776;28;19963;-67
2021/06/16 04:53:10;;;;;;;;;;;12.00;87.40;;;;;;5100210;28;20378;-68
2021/06/16 04:55:35;;;;;;;;;;;12.10;87.40;;;;;;5080887;28;19935;-67
2021/06/16 04:58:01;;;;;;;;;;;12.30;87.50;;;;;;5101677;28;19924;-67
2021/06/16 05:00:27;;;;;;;;;;;12.40;87.50;;;;;;5083070;28;19920;-67
2021/06/16 05:02:53;;;;;;;;;;;12.60;87.40;;;;;;5076616;28;20375;-68
2021/06/16 05:05:19;;;;;;;;;;;12.70;87.30;;;;;;5080708;28;19924;-67
2021/06/16 05:07:45;;;;;;;;;;;12.90;87.70;;;;;;5101147;28;19919;-68
2021/06/16 05:10:10;;;;;;;;;;;13.10;87.10;;;;;;5106722;28;19927;-68
2021/06/16 05:12:36;;;;;;;;;;;13.20;87.00;;;;;;5093514;28;20359;-68
2021/06/16 05:15:02;;;;;;;;;;;13.40;87.00;;;;;;5115416;28;19950;-68
2021/06/16 05:17:28;;;;;;;;;;;13.50;86.80;;;;;;5115651;28;19916;-68
2021/06/16 05:19:57;;;;;;;;;;;13.70;86.70;;;;;;5080840;28;19939;-69
2021/06/16 05:22:23;;;;;;;;;;;13.90;86.60;;;;;;5115994;28;19916;-68
2021/06/16 05:24:49;;;;;;;;;;;14.10;86.30;;;;;;5113137;28;19916;-69
2021/06/16 05:27:15;;;;;;;;;;;14.30;86.10;;;;;;5115908;28;19916;-68
2021/06/16 05:29:44;;;;;;;;;;;14.50;85.80;;;;;;5115348;28;19952;-68
2021/06/16 05:32:10;;;;;;;;;;;14.80;85.40;;;;;;5097131;28;19919;-68
2021/06/16 05:34:36;;;;;;;;;;;15.00;85.10;;;;;;5115102;28;19968;-68
2021/06/16 05:37:01;;;;;;;;;;;15.20;84.60;;;;;;5115095;28;19940;-68
2021/06/16 05:39:27;;;;;;;;;;;15.30;84.00;;;;;;5097417;28;19955;-69
2021/06/16 05:41:53;;;;;;;;;;;15.60;83.70;;;;;;5115300;28;19930;-67
2021/06/16 05:44:19;;;;;;;;;;;16.10;84.60;;;;;;5096533;28;20004;-68
2021/06/16 05:46:44;;;;;;;;;;;17.50;90.20;;;;;;5097020;28;19920;-68
2021/06/16 05:49:10;;;;;;;;;;;19.10;91.00;;;;;;5096190;28;20003;-69
2021/06/16 05:51:36;;;;;;;;;;;20.50;89.50;;;;;;5113917;28;19920;-68
2021/06/16 05:54:01;;;;;;;;;;;21.40;84.40;;;;;;5079719;28;20446;-68
2021/06/16 05:56:27;;;;;;;;;;;22.10;81.10;;;;;;5095825;28;19922;-68
2021/06/16 05:58:52;;;;;;;;;;;22.40;76.80;;;;;;5096760;28;19919;-68
2021/06/16 06:01:18;;;;;;;;;;;23.00;74.20;;;;;;5096377;28;20268;-69
2021/06/16 06:03:44;;;;;;;;;;;24.10;75.60;;;;;;5094279;28;19968;-69
2021/06/16 06:06:09;;;;;;;;;;;25.50;74.60;;;;;;5096523;28;19919;-69
2021/06/16 06:08:35;;;;;;;;;;;26.90;72.40;;;;;;5095154;28;19952;-69
2021/06/16 06:11:01;;;;;;;;;;;28.00;68.00;;;;;;5095289;28;19980;-68
2021/06/16 06:13:26;;;;;;;;;;;28.80;63.20;;;;;;5093925;28;19923;-69
2021/06/16 06:15:52;;;;;;;;;;;29.40;59.50;;;;;;5095422;28;19920;-68
2021/06/16 06:18:18;;;;;;;;;;;29.80;55.40;;;;;;5096431;28;20477;-69
2021/06/16 06:20:43;;;;;;;;;;;30.10;53.00;;;;;;5114278;28;19964;-69
2021/06/16 06:23:09;;;;;;;;;;;30.50;51.20;;;;;;5077744;28;19923;-69
2021/06/16 06:25:36;;;;;;;;;;;31.20;50.90;;;;;;5113441;28;20382;-70
2021/06/16 06:28:02;;;;;;;;;;;32.00;49.20;;;;;;5094937;28;19971;-69
2021/06/16 06:30:28;;;;;;;;;;;32.60;46.20;;;;;;5096178;28;20019;-69
2021/06/16 06:32:53;;;;;;;;;;;32.90;44.90;;;;;;5095697;28;20082;-69
2021/06/16 06:35:19;;;;;;;;;;;33.30;42.20;;;;;;5113746;28;20287;-69
2021/06/16 06:37:45;;;;;;;;;;;33.40;40.20;;;;;;5114201;28;20335;-69
2021/06/16 06:40:10;;;;;;;;;;;33.70;39.70;;;;;;5096143;28;19926;-68
2021/06/16 06:42:36;;;;;;;;;;;34.00;38.80;;;;;;5095651;28;19922;-69
2021/06/16 06:45:03;;;;;;;;;;;34.40;37.70;;;;;;5095118;28;20268;-69
2021/06/16 06:47:28;;;;;;;;;;;35.00;37.40;;;;;;5113259;28;19927;-69
2021/06/16 06:49:54;;;;;;;;;;;35.50;36.00;;;;;;5113864;28;19916;-69
2021/06/16 06:52:20;;;;;;;;;;;35.70;34.30;;;;;;5095773;28;19923;-69
2021/06/16 06:54:45;;;;;;;;;;;35.80;33.50;;;;;;5094706;28;19930;-69
2021/06/16 06:57:11;;;;;;;;;;;36.30;33.80;;;;;;5108259;28;20383;-68
2021/06/16 06:59:36;;;;;;;;;;;37.00;33.30;;;;;;5094728;28;19939;-69
2021/06/16 07:02:02;;;;;;;;;;;37.60;32.10;;;;;;5107526;28;19950;-68
2021/06/16 07:04:28;;;;;;;;;;;38.20;31.50;;;;;;5073313;28;19961;-69
2021/06/16 07:06:54;;;;;;;;;;;38.50;30.00;;;;;;5103308;28;20306;-69
2021/06/16 07:09:19;;;;;;;;;;;38.30;29.10;;;;;;5098252;28;19973;-68
2021/06/16 07:11:45;;;;;;;;;;;38.20;28.80;;;;;;5091524;28;19915;-69
2021/06/16 07:14:11;;;;;;;;;;;38.50;29.30;;;;;;5079294;28;20000;-69
2021/06/16 07:16:36;;;;;;;;;;;39.00;28.80;;;;;;5104333;28;19956;-69
2021/06/16 07:19:02;;;;;;;;;;;39.50;28.70;;;;;;5105478;28;19974;-68
2021/06/16 07:21:28;;;;;;;;;;;40.10;28.50;;;;;;5077780;28;19920;-69
2021/06/16 07:23:54;;;;;;;;;;;40.90;28.10;;;;;;5095160;28;19931;-69
2021/06/16 07:26:19;;;;;;;;;;;41.30;27.00;;;;;;5105757;28;19970;-69
2021/06/16 07:28:45;;;;;;;;;;;41.10;26.40;;;;;;5067995;28;19916;-69
2021/06/16 07:31:11;;;;;;;;;;;41.00;26.00;;;;;;5084184;28;19920;-69
2021/06/16 07:33:37;;;;;;;;;;;41.20;26.30;;;;;;5094552;28;19950;-69
2021/06/16 07:36:02;;;;;;;;;;;41.70;25.90;;;;;;5092874;28;19919;-68
2021/06/16 07:38:28;;;;;;;;;;;41.70;25.50;;;;;;5104393;28;19923;-69
2021/06/16 07:40:54;;;;;;;;;;;42.10;25.50;;;;;;5085499;28;20290;-69
2021/06/16 07:43:19;;;;;;;;;;;42.10;24.90;;;;;;5096748;28;20432;-69
2021/06/16 07:45:45;;;;;;;;;;;42.40;25.30;;;;;;5092565;28;19972;-68
2021/06/16 07:48:11;;;;;;;;;;;43.10;24.90;;;;;;5106677;28;19969;-69
2021/06/16 07:50:38;;;;;;;;;;;43.50;24.40;;;;;;5101594;28;19919;-69
2021/06/16 07:53:07;;;;;;;;;;;43.40;24.00;;;;;;5099066;28;19916;-68
2021/06/16 07:55:33;;;;;;;;;;;43.50;24.00;;;;;;5109426;28;19964;-68
2021/06/16 07:57:59;;;;;;;;;;;43.60;24.00;;;;;;5089857;28;19916;-69
2021/06/16 08:00:25;;;;;;;;;;;44.00;24.10;;;;;;5099293;28;20011;-70
2021/06/16 08:02:50;;;;;;;;;;;44.20;23.40;;;;;;5082126;28;19916;-69
2021/06/16 08:05:16;;;;;;;;;;;44.00;23.20;;;;;;5087571;28;19920;-69
2021/06/16 08:07:43;;;;;;;;;;;43.30;22.40;;;;;;5089715;28;19994;-69
2021/06/16 08:10:09;;;;;;;;;;;42.60;22.90;;;;;;5091580;28;19923;-69
2021/06/16 08:12:34;;;;;;;;;;;42.30;22.90;;;;;;5091120;28;19928;-69
2021/06/16 08:15:01;;;;;;;;;;;42.10;22.80;;;;;;5104019;28;19969;-69
2021/06/16 08:17:26;;;;;;;;;;;42.00;23.20;;;;;;5094910;28;20385;-68
2021/06/16 08:19:52;;;;;;;;;;;42.80;23.80;;;;;;5076449;28;19920;-69
2021/06/16 08:22:18;;;;;;;;;;;43.90;23.40;;;;;;5087086;28;19916;-68
2021/06/16 08:24:44;;;;;;;;;;;44.20;22.70;;;;;;5083140;28;19972;-69
2021/06/16 08:27:10;;;;;;;;;;;43.90;22.30;;;;;;5093180;28;19920;-69
2021/06/16 08:29:35;;;;;;;;;;;44.00;22.70;;;;;;5095021;28;20371;-69
2021/06/16 08:32:01;;;;;;;;;;;44.30;22.50;;;;;;5106802;28;19924;-69
2021/06/16 08:34:27;;;;;;;;;;;45.10;22.40;;;;;;5091189;28;19916;-68
2021/06/16 08:36:53;;;;;;;;;;;45.80;22.20;;;;;;5102406;28;19922;-69
2021/06/16 08:39:19;;;;;;;;;;;46.20;21.50;;;;;;5096508;28;19985;-69
2021/06/16 08:41:45;;;;;;;;;;;46.40;21.60;;;;;;5091898;28;19916;-68
2021/06/16 08:44:12;;;;;;;;;;;46.90;21.70;;;;;;5086329;28;19931;-70
2021/06/16 08:46:37;;;;;;;;;;;47.40;21.40;;;;;;5091032;28;20075;-68
2021/06/16 08:49:04;;;;;;;;;;;47.90;21.30;;;;;;5090749;28;19921;-69
2021/06/16 08:51:30;;;;;;;;;;;48.50;21.20;;;;;;5088921;28;20387;-69
2021/06/16 08:53:55;;;;;;;;;;;48.60;20.60;;;;;;5109193;28;19916;-68
2021/06/16 08:56:21;;;;;;;;;;;48.40;20.60;;;;;;5079596;28;19958;-69
2021/06/16 08:58:47;;;;;;;;;;;48.00;20.30;;;;;;5083523;28;19920;-69
2021/06/16 09:01:12;;;;;;;;;;;47.30;20.20;;;;;;5097142;28;20007;-69
2021/06/16 09:03:38;;;;;;;;;;;46.90;20.40;;;;;;5107257;28;19920;-69
2021/06/16 09:06:05;;;;;;;;;;;47.30;20.60;;;;;;5072017;28;20338;-68
2021/06/16 09:08:31;;;;;;;;;;;47.20;20.00;;;;;;5099018;28;19955;-69
2021/06/16 09:10:57;;;;;;;;;;;46.80;20.00;;;;;;5081201;28;20402;-69
2021/06/16 09:13:24;;;;;;;;;;;46.40;20.10;;;;;;5088577;28;19930;-68
2021/06/16 09:15:50;;;;;;;;;;;46.50;20.30;;;;;;5105751;28;19916;-69
2021/06/16 09:18:16;;;;;;;;;;;46.80;20.00;;;;;;5072784;28;19970;-68
2021/06/16 09:20:45;;;;;;;;;;;46.90;20.20;;;;;;5082799;28;20394;-68
2021/06/16 09:23:16;;;;;;;;;;;46.80;20.00;;;;;;5077049;28;20291;-68
2021/06/16 09:25:42;;;;;;;;;;;46.80;20.30;;;;;;5092486;28;19935;-68
2021/06/16 09:28:09;;;;;;;;;;;47.40;20.40;;;;;;5105496;28;19923;-68
2021/06/16 09:30:42;;;;;;;;;;;47.80;20.40;;;;;;5091000;28;19919;-68
2021/06/16 09:33:10;;;;;;;;;;;48.70;20.40;;;;;;5103471;28;19916;-70
2021/06/16 09:35:38;;;;;;;;;;;49.10;20.00;;;;;;5095944;28;19922;-69
2021/06/16 09:38:05;;;;;;;;;;;48.70;19.90;;;;;;5076560;28;19923;-70
2021/06/16 09:40:39;;;;;;;;;;;48.70;20.20;;;;;;5102602;28;19916;-69
2021/06/16 09:43:06;;;;;;;;;;;48.90;20.20;;;;;;5085874;28;20390;-69
2021/06/16 09:45:35;;;;;;;;;;;49.50;20.10;;;;;;5075825;28;19946;-68
2021/06/16 09:48:21;;;;;;;;;;;49.00;19.70;;;;;;5088599;28;19943;-69
2021/06/16 09:50:47;;;;;;;;;;;48.40;20.00;;;;;;5103943;28;20406;-69
2021/06/16 09:53:13;;;;;;;;;;;48.60;20.20;;;;;;5108814;28;19920;-68
2021/06/16 09:55:39;;;;;;;;;;;48.70;20.40;;;;;;5093729;28;20304;-69
2021/06/16 09:58:05;;;;;;;;;;;49.00;20.20;;;;;;5106072;28;19920;-69
2021/06/16 10:00:32;;;;;;;;;;;49.20;20.10;;;;;;5101024;28;19919;-68
2021/06/16 10:03:10;;;;;;;;;;;49.50;20.30;;;;;;5083357;28;19920;-68
2021/06/16 10:05:56;;;;;;;;;;;49.70;20.10;;;;;;5093072;28;20029;-69
2021/06/16 10:08:23;;;;;;;;;;;50.00;20.20;;;;;;5062194;28;20358;-69
2021/06/16 10:10:48;;;;;;;;;;;50.10;19.90;;;;;;5085610;28;19912;-69
2021/06/16 10:13:17;;;;;;;;;;;49.70;19.50;;;;;;5089276;28;19944;-69
2021/06/16 10:15:43;;;;;;;;;;;49.10;19.50;;;;;;5095239;28;19993;-69
2021/06/16 10:18:09;;;;;;;;;;;48.90;19.90;;;;;;5112850;28;20268;-68
2021/06/16 10:20:34;;;;;;;;;;;48.50;19.60;;;;;;5067508;28;19934;-69
2021/06/16 10:23:00;;;;;;;;;;;48.10;19.70;;;;;;5095392;28;19961;-69
2021/06/16 10:25:25;;;;;;;;;;;48.10;20.30;;;;;;5079473;28;20272;-69
2021/06/16 10:27:55;;;;;;;;;;;48.90;20.60;;;;;;5106756;28;19935;-69
2021/06/16 10:30:22;;;;;;;;;;;49.20;19.70;;;;;;5113535;28;19922;-69
2021/06/16 10:32:49;;;;;;;;;;;48.50;20.00;;;;;;5087499;28;20352;-70
2021/06/16 10:35:19;;;;;;;;;;;48.80;20.50;;;;;;5108091;28;20003;-68
2021/06/16 10:37:45;;;;;;;;;;;49.30;20.40;;;;;;5096847;28;19959;-69
2021/06/16 10:40:23;;;;;;;;;;;49.60;20.20;;;;;;5108382;28;19952;-68
2021/06/16 10:43:02;;;;;;;;;;;49.60;19.80;;;;;;5085788;28;19922;-69
2021/06/16 10:45:46;;;;;;;;;;;49.10;20.00;;;;;;5078752;28;20337;-69
2021/06/16 10:48:12;;;;;;;;;;;49.60;20.20;;;;;;5099030;28;19927;-72
2021/06/16 10:50:47;;;;;;;;;;;50.50;20.30;;;;;;5104465;28;19938;-72
2021/06/16 10:53:16;;;;;;;;;;;51.20;20.00;;;;;;5106653;28;19973;-73
2021/06/16 10:58:21;;;;;;;;;;;51.60;20.00;;;;;;5106302;28;20288;-72
2021/06/16 11:01:05;;;;;;;;;;;52.60;19.90;;;;;;5068907;28;19937;-73
2021/06/16 11:03:46;;;;;;;;;;;53.40;19.70;;;;;;5094943;28;19920;-71
2021/06/16 11:06:31;;;;;;;;;;;53.90;19.50;;;;;;5113538;28;19943;-72
2021/06/16 11:08:56;;;;;;;;;;;53.50;19.00;;;;;;5105229;28;20291;-73
2021/06/16 11:11:23;;;;;;;;;;;53.30;19.30;;;;;;5094900;28;19931;-72
2021/06/16 11:13:50;;;;;;;;;;;53.40;18.90;;;;;;5095883;28;19916;-73
2021/06/16 11:16:34;;;;;;;;;;;53.10;19.00;;;;;;5088532;28;20311;-73
2021/06/16 11:19:15;;;;;;;;;;;52.70;19.00;;;;;;5086671;28;19920;-73
2021/06/16 11:21:41;;;;;;;;;;;52.40;19.20;;;;;;5095520;28;19969;-73
2021/06/16 11:24:07;;;;;;;;;;;52.40;19.00;;;;;;5074842;28;20006;-72
2021/06/16 11:26:42;;;;;;;;;;;52.20;19.20;;;;;;5111009;28;19930;-73
2021/06/16 11:29:08;;;;;;;;;;;52.10;19.20;;;;;;5112457;28;19939;-73
2021/06/16 11:31:52;;;;;;;;;;;52.00;19.20;;;;;;5113300;28;20317;-73
2021/06/16 11:34:53;;;;;;;;;;;50.60;18.70;;;;;;5112103;28;19923;-72
2021/06/16 11:37:48;;;;;;;;;;;47.70;19.10;;;;;;5051739;28;19962;-71
2021/06/16 11:40:17;;;;;;;;;;;45.40;19.80;;;;;;5071205;28;19922;-71
2021/06/16 11:42:43;;;;;;;;;;;43.10;20.10;;;;;;5113639;28;19931;-72
2021/06/16 11:45:09;;;;;;;;;;;41.00;20.80;;;;;;5111621;28;20315;-71
2021/06/16 11:47:34;;;;;;;;;;;39.40;21.70;;;;;;5111553;28;19919;-72
2021/06/16 11:50:00;;;;;;;;;;;38.70;22.40;;;;;;5112107;28;19916;-72
2021/06/16 11:52:25;;;;;;;;;;;38.40;22.80;;;;;;5094057;28;19923;-72
2021/06/16 11:54:51;;;;;;;;;;;38.50;23.10;;;;;;5112337;28;20363;-72
2021/06/16 11:57:19;;;;;;;;;;;38.70;23.40;;;;;;5112811;28;19916;-72
2021/06/16 11:59:46;;;;;;;;;;;38.90;23.50;;;;;;5094375;28;20039;-71
2021/06/16 12:02:33;;;;;;;;;;;38.70;23.60;;;;;;5112830;28;19970;-72
2021/06/16 12:04:59;;;;;;;;;;;38.40;24.00;;;;;;5111649;28;19985;-71
2021/06/16 12:07:29;;;;;;;;;;;38.10;24.40;;;;;;5112619;28;20371;-72
2021/06/16 12:09:56;;;;;;;;;;;37.80;24.30;;;;;;5077444;28;19922;-69
2021/06/16 12:12:23;;;;;;;;;;;37.40;24.50;;;;;;5094294;28;19994;-72
2021/06/16 12:14:49;;;;;;;;;;;36.70;24.70;;;;;;5111797;28;19969;-72
2021/06/16 12:17:15;;;;;;;;;;;35.80;25.00;;;;;;5093894;28;19912;-70
2021/06/16 12:19:40;;;;;;;;;;;34.90;25.70;;;;;;5112230;28;20019;-71
2021/06/16 12:22:10;;;;;;;;;;;34.20;26.30;;;;;;5093967;28;19964;-71
2021/06/16 12:24:36;;;;;;;;;;;33.70;26.50;;;;;;5110880;28;19919;-71
2021/06/16 12:27:03;;;;;;;;;;;33.40;27.40;;;;;;5093969;28;19916;-71
2021/06/16 12:29:30;;;;;;;;;;;33.10;27.20;;;;;;5111941;28;19955;-70
2021/06/16 12:31:58;;;;;;;;;;;32.80;27.80;;;;;;5110956;28;20003;-72
2021/06/16 12:34:53;;;;;;;;;;;32.50;28.30;;;;;;5093238;28;19946;-71
2021/06/16 12:37:19;;;;;;;;;;;32.50;28.50;;;;;;5111856;28;19916;-71
2021/06/16 12:39:55;;;;;;;;;;;32.30;28.90;;;;;;5112145;28;20441;-71
2021/06/16 12:42:21;;;;;;;;;;;32.30;29.00;;;;;;5111714;28;19937;-71
2021/06/16 12:44:46;;;;;;;;;;;32.10;29.00;;;;;;5076263;28;19920;-71
2021/06/16 12:47:25;;;;;;;;;;;31.60;29.20;;;;;;5076441;28;19964;-70
2021/06/16 12:49:52;;;;;;;;;;;31.20;29.40;;;;;;5111852;28;19970;-70
2021/06/16 12:52:30;;;;;;;;;;;30.90;29.60;;;;;;5111445;28;20330;-70
2021/06/16 12:55:08;;;;;;;;;;;30.70;29.80;;;;;;5092909;28;20367;-71
2021/06/16 12:57:42;;;;;;;;;;;30.60;30.00;;;;;;5111408;28;19954;-70
2021/06/16 13:00:12;;;;;;;;;;;30.50;30.10;;;;;;5111718;28;19923;-70
2021/06/16 13:02:38;;;;;;;;;;;30.60;30.40;;;;;;5093008;28;20351;-70
2021/06/16 13:05:05;;;;;;;;;;;30.60;30.50;;;;;;5110990;28;19955;-70
2021/06/16 13:07:41;;;;;;;;;;;30.50;30.40;;;;;;5111655;28;19920;-70
2021/06/16 13:10:07;;;;;;;;;;;30.40;30.70;;;;;;5075729;28;19916;-70
2021/06/16 13:12:33;;;;;;;;;;;30.20;31.30;;;;;;5076295;28;19912;-70
2021/06/16 13:15:02;;;;;;;;;;;30.20;31.40;;;;;;5092450;28;20356;-70
2021/06/16 13:17:39;;;;;;;;;;;30.10;31.70;;;;;;5111488;28;20003;-71
2021/06/16 13:20:05;;;;;;;;;;;30.00;31.60;;;;;;5093015;28;20005;-69
2021/06/16 13:22:36;;;;;;;;;;;29.90;31.80;;;;;;5111710;28;20025;-70
2021/06/16 13:25:02;;;;;;;;;;;29.80;31.80;;;;;;5110096;28;20387;-70
2021/06/16 13:27:29;;;;;;;;;;;29.70;31.90;;;;;;5111477;28;19915;-70
2021/06/16 13:29:58;;;;;;;;;;;29.50;32.10;;;;;;5111410;28;19916;-71
2021/06/16 13:32:24;;;;;;;;;;;29.40;32.40;;;;;;5110416;28;19927;-69
2021/06/16 13:34:50;;;;;;;;;;;29.30;32.70;;;;;;5077856;28;19928;-69
2021/06/16 13:37:15;;;;;;;;;;;29.20;32.90;;;;;;5075066;28;19971;-70
2021/06/16 13:39:41;;;;;;;;;;;29.20;33.00;;;;;;5093186;28;19935;-70
2021/06/16 13:42:08;;;;;;;;;;;29.10;33.30;;;;;;5075915;28;21502;-70
2021/06/16 13:44:33;;;;;;;;;;;29.00;33.50;;;;;;5093432;28;19920;-71
2021/06/16 13:46:59;;;;;;;;;;;29.00;33.80;;;;;;5094388;28;19916;-71
2021/06/16 13:49:25;;;;;;;;;;;29.00;33.90;;;;;;5094823;28;19916;-72
2021/06/16 13:51:50;;;;;;;;;;;29.00;34.10;;;;;;5076529;28;19960;-70
2021/06/16 13:54:18;;;;;;;;;;;29.10;34.40;;;;;;5093845;28;20405;-70
2021/06/16 13:56:46;;;;;;;;;;;29.10;34.40;;;;;;5094679;28;19969;-68
2021/06/16 13:59:12;;;;;;;;;;;29.10;34.80;;;;;;5110003;28;20360;-71
2021/06/16 14:01:37;;;;;;;;;;;29.10;34.90;;;;;;5084570;28;19916;-70
2021/06/16 14:04:03;;;;;;;;;;;29.20;35.00;;;;;;5093960;28;19920;-70
2021/06/16 14:06:29;;;;;;;;;;;29.30;35.20;;;;;;5094493;28;20361;-67
2021/06/16 14:08:56;;;;;;;;;;;29.30;35.00;;;;;;5094479;28;20011;-67
2021/06/16 14:11:22;;;;;;;;;;;29.30;35.30;;;;;;5059564;28;19927;-68
2021/06/16 14:13:48;;;;;;;;;;;29.30;35.20;;;;;;5093839;28;19917;-67
2021/06/16 14:16:14;;;;;;;;;;;29.40;35.30;;;;;;5093731;28;20403;-67
2021/06/16 14:18:39;;;;;;;;;;;29.60;35.40;;;;;;5076224;28;19916;-67
2021/06/16 14:21:05;;;;;;;;;;;29.80;35.40;;;;;;5059500;28;19924;-68